sensor_id;sensor_type;location;lat;lon;timestamp;temperature;humidity
3996;DHT22;2012;49.794;9.722;2023-05-07T00:01:39;14.30;99.90
3996;DHT22;2012;49.794;9.722;2023-05-07T00:04:07;14.40;99.90
3996;DHT22;2012;49.794;9.722;2023-05-07T00:06:34;14.50;99.90
3996;DHT22;2012;49.794;9.722;2023-05-07T00:09:01;14.40;99.90
3996;DHT22;2012;49.794;9.722;2023-05-07T00:11:28;14.40;99.90
3996;DHT22;2012;49.794;9.722;2023-05-07T00:13:55;14.30;99.90
3996;DHT22;2012;49.794;9.722;2023-05-07T00:16:22;14.10;99.90
3996;DHT22;2012;49.794;9.722;2023-05-07T00:18:49;14.30;99.90
3996;DHT22;2012;49.794;9.722;2023-05-07T00:21:17;14.30;99.90
3996;DHT22;2012;49.794;9.722;2023-05-07T00:23:44;14.20;99.90
3996;DHT22;2012;49.794;9.722;2023-05-07T00:26:10;14.10;99.90
3996;DHT22;2012;49.794;9.722;2023-05-07T00:28:38;14.10;99.90
3996;DHT22;2012;49.794;9.722;2023-05-07T00:31:06;14.10;99.90
3996;DHT22;2012;49.794;9.722;2023-05-07T00:33:33;14.20;99.90
3996;DHT22;2012;49.794;9.722;2023-05-07T00:35:59;14.10;99.90
3996;DHT22;2012;49.794;9.722;2023-05-07T00:38:28;14.10;99.90
3996;DHT22;2012;49.794;9.722;2023-05-07T00:40:55;14.00;99.90
3996;DHT22;2012;49.794;9.722;2023-05-07T00:43:22;13.90;99.90
3996;DHT22;2012;49.794;9.722;2023-05-07T00:45:49;13.80;99.90
3996;DHT22;2012;49.794;9.722;2023-05-07T00:48:16;13.80;99.90
3996;DHT22;2012;49.794;9.722;2023-05-07T00:50:44;14.00;99.90
3996;DHT22;2012;49.794;9.722;2023-05-07T00:53:12;13.90;99.90
3996;DHT22;2012;49.794;9.722;2023-05-07T00:55:39;13.90;99.90
3996;DHT22;2012;49.794;9.722;2023-05-07T00:58:06;13.80;99.90
3996;DHT22;2012;49.794;9.722;2023-05-07T01:00:33;13.90;99.90
3996;DHT22;2012;49.794;9.722;2023-05-07T01:03:00;13.90;99.90
3996;DHT22;2012;49.794;9.722;2023-05-07T01:05:29;13.80;99.90
3996;DHT22;2012;49.794;9.722;2023-05-07T01:07:57;13.80;99.90
3996;DHT22;2012;49.794;9.722;2023-05-07T01:10:25;13.90;99.90
3996;DHT22;2012;49.794;9.722;2023-05-07T01:12:54;13.80;99.90
3996;DHT22;2012;49.794;9.722;2023-05-07T01:15:21;13.80;99.90
3996;DHT22;2012;49.794;9.722;2023-05-07T01:17:48;13.70;99.90
3996;DHT22;2012;49.794;9.722;2023-05-07T01:20:21;13.60;99.90
3996;DHT22;2012;49.794;9.722;2023-05-07T01:22:50;13.70;99.90
3996;DHT22;2012;49.794;9.722;2023-05-07T01:25:18;13.60;99.90
3996;DHT22;2012;49.794;9.722;2023-05-07T01:27:49;13.50;99.90
3996;DHT22;2012;49.794;9.722;2023-05-07T01:30:17;13.50;99.90
3996;DHT22;2012;49.794;9.722;2023-05-07T01:33:07;13.40;99.90
3996;DHT22;2012;49.794;9.722;2023-05-07T01:35:40;13.40;99.90
3996;DHT22;2012;49.794;9.722;2023-05-07T01:38:08;13.30;99.90
3996;DHT22;2012;49.794;9.722;2023-05-07T01:40:35;13.40;99.90
3996;DHT22;2012;49.794;9.722;2023-05-07T01:43:03;13.30;99.90
3996;DHT22;2012;49.794;9.722;2023-05-07T01:45:32;13.20;99.90
3996;DHT22;2012;49.794;9.722;2023-05-07T01:48:01;13.20;99.90
3996;DHT22;2012;49.794;9.722;2023-05-07T01:50:29;13.30;99.90
3996;DHT22;2012;49.794;9.722;2023-05-07T01:52:57;13.30;99.90
3996;DHT22;2012;49.794;9.722;2023-05-07T01:55:24;13.30;99.90
3996;DHT22;2012;49.794;9.722;2023-05-07T01:57:51;13.30;99.90
3996;DHT22;2012;49.794;9.722;2023-05-07T02:00:18;13.20;99.90
3996;DHT22;2012;49.794;9.722;2023-05-07T02:02:45;13.40;99.90
3996;DHT22;2012;49.794;9.722;2023-05-07T02:05:44;13.20;99.90
3996;DHT22;2012;49.794;9.722;2023-05-07T02:08:25;13.20;99.90
3996;DHT22;2012;49.794;9.722;2023-05-07T02:10:52;13.20;99.90
3996;DHT22;2012;49.794;9.722;2023-05-07T02:13:20;13.00;99.90
3996;DHT22;2012;49.794;9.722;2023-05-07T02:15:49;13.10;99.90
3996;DHT22;2012;49.794;9.722;2023-05-07T02:18:17;13.00;99.90
3996;DHT22;2012;49.794;9.722;2023-05-07T02:20:45;13.10;99.90
3996;DHT22;2012;49.794;9.722;2023-05-07T02:23:11;13.10;99.90
3996;DHT22;2012;49.794;9.722;2023-05-07T02:25:38;13.20;99.90
3996;DHT22;2012;49.794;9.722;2023-05-07T02:28:05;12.90;99.90
3996;DHT22;2012;49.794;9.722;2023-05-07T02:31:05;12.90;99.90
3996;DHT22;2012;49.794;9.722;2023-05-07T02:33:33;13.00;99.90
3996;DHT22;2012;49.794;9.722;2023-05-07T02:36:10;13.00;99.90
3996;DHT22;2012;49.794;9.722;2023-05-07T02:38:48;13.10;99.90
3996;DHT22;2012;49.794;9.722;2023-05-07T02:41:15;13.00;99.90
3996;DHT22;2012;49.794;9.722;2023-05-07T02:43:42;13.00;99.90
3996;DHT22;2012;49.794;9.722;2023-05-07T02:46:09;13.00;99.90
3996;DHT22;2012;49.794;9.722;2023-05-07T02:48:41;13.10;99.90
3996;DHT22;2012;49.794;9.722;2023-05-07T02:51:08;13.10;99.90
3996;DHT22;2012;49.794;9.722;2023-05-07T02:53:36;13.10;99.90
3996;DHT22;2012;49.794;9.722;2023-05-07T02:56:03;13.10;99.90
3996;DHT22;2012;49.794;9.722;2023-05-07T02:58:30;13.00;99.90
3996;DHT22;2012;49.794;9.722;2023-05-07T03:00:59;13.00;99.90
3996;DHT22;2012;49.794;9.722;2023-05-07T03:03:34;13.00;99.90
3996;DHT22;2012;49.794;9.722;2023-05-07T03:06:01;13.00;99.90
3996;DHT22;2012;49.794;9.722;2023-05-07T03:08:28;13.00;99.90
3996;DHT22;2012;49.794;9.722;2023-05-07T03:10:55;12.90;99.90
3996;DHT22;2012;49.794;9.722;2023-05-07T03:13:21;13.00;99.90
3996;DHT22;2012;49.794;9.722;2023-05-07T03:15:49;13.00;99.90
3996;DHT22;2012;49.794;9.722;2023-05-07T03:18:15;12.80;99.90
3996;DHT22;2012;49.794;9.722;2023-05-07T03:20:42;12.80;99.90
3996;DHT22;2012;49.794;9.722;2023-05-07T03:23:09;13.00;99.90
3996;DHT22;2012;49.794;9.722;2023-05-07T03:25:36;13.00;99.90
3996;DHT22;2012;49.794;9.722;2023-05-07T03:28:05;13.10;99.90
3996;DHT22;2012;49.794;9.722;2023-05-07T03:30:38;13.00;99.90
3996;DHT22;2012;49.794;9.722;2023-05-07T03:33:06;13.00;99.90
3996;DHT22;2012;49.794;9.722;2023-05-07T03:35:33;13.00;99.90
3996;DHT22;2012;49.794;9.722;2023-05-07T03:38:01;13.10;99.90
3996;DHT22;2012;49.794;9.722;2023-05-07T03:40:30;13.00;99.90
3996;DHT22;2012;49.794;9.722;2023-05-07T03:42:57;13.00;99.90
3996;DHT22;2012;49.794;9.722;2023-05-07T03:45:26;13.10;99.90
3996;DHT22;2012;49.794;9.722;2023-05-07T03:48:10;13.00;99.90
3996;DHT22;2012;49.794;9.722;2023-05-07T03:50:37;13.00;99.90
3996;DHT22;2012;49.794;9.722;2023-05-07T03:53:05;12.90;99.90
3996;DHT22;2012;49.794;9.722;2023-05-07T03:55:37;12.90;99.90
3996;DHT22;2012;49.794;9.722;2023-05-07T03:58:04;12.90;99.90
3996;DHT22;2012;49.794;9.722;2023-05-07T04:00:31;13.00;99.90
3996;DHT22;2012;49.794;9.722;2023-05-07T04:03:01;12.90;99.90
3996;DHT22;2012;49.794;9.722;2023-05-07T04:05:30;12.80;99.90
3996;DHT22;2012;49.794;9.722;2023-05-07T04:08:01;12.80;99.90
3996;DHT22;2012;49.794;9.722;2023-05-07T04:10:35;12.90;99.90
3996;DHT22;2012;49.794;9.722;2023-05-07T04:13:07;12.80;99.90
3996;DHT22;2012;49.794;9.722;2023-05-07T04:15:35;12.80;99.90
3996;DHT22;2012;49.794;9.722;2023-05-07T04:18:06;12.80;99.90
3996;DHT22;2012;49.794;9.722;2023-05-07T04:20:34;12.90;99.90
3996;DHT22;2012;49.794;9.722;2023-05-07T04:23:06;13.10;99.90
3996;DHT22;2012;49.794;9.722;2023-05-07T04:25:34;13.00;99.90
3996;DHT22;2012;49.794;9.722;2023-05-07T04:28:08;13.00;99.90
3996;DHT22;2012;49.794;9.722;2023-05-07T04:30:39;12.80;99.90
3996;DHT22;2012;49.794;9.722;2023-05-07T04:33:06;12.60;99.90
3996;DHT22;2012;49.794;9.722;2023-05-07T04:35:35;12.70;99.90
3996;DHT22;2012;49.794;9.722;2023-05-07T04:38:03;12.90;99.90
3996;DHT22;2012;49.794;9.722;2023-05-07T04:40:30;12.90;99.90
3996;DHT22;2012;49.794;9.722;2023-05-07T04:42:58;12.80;99.90
3996;DHT22;2012;49.794;9.722;2023-05-07T04:45:28;12.90;99.90
3996;DHT22;2012;49.794;9.722;2023-05-07T04:47:54;12.90;99.90
3996;DHT22;2012;49.794;9.722;2023-05-07T04:50:22;13.00;99.90
3996;DHT22;2012;49.794;9.722;2023-05-07T04:52:54;13.00;99.90
3996;DHT22;2012;49.794;9.722;2023-05-07T04:55:22;12.80;99.90
3996;DHT22;2012;49.794;9.722;2023-05-07T04:57:49;12.80;99.90
3996;DHT22;2012;49.794;9.722;2023-05-07T05:00:17;13.10;99.90
3996;DHT22;2012;49.794;9.722;2023-05-07T05:02:48;13.20;99.90
3996;DHT22;2012;49.794;9.722;2023-05-07T05:05:18;13.20;99.90
3996;DHT22;2012;49.794;9.722;2023-05-07T05:07:48;13.30;99.90
3996;DHT22;2012;49.794;9.722;2023-05-07T05:10:15;13.40;99.90
3996;DHT22;2012;49.794;9.722;2023-05-07T05:12:43;13.40;99.90
3996;DHT22;2012;49.794;9.722;2023-05-07T05:15:14;13.30;99.90
3996;DHT22;2012;49.794;9.722;2023-05-07T05:17:41;13.30;99.90
3996;DHT22;2012;49.794;9.722;2023-05-07T05:20:09;13.40;99.90
3996;DHT22;2012;49.794;9.722;2023-05-07T05:22:41;13.50;99.90
3996;DHT22;2012;49.794;9.722;2023-05-07T05:25:09;13.60;99.90
3996;DHT22;2012;49.794;9.722;2023-05-07T05:27:36;13.30;99.90
3996;DHT22;2012;49.794;9.722;2023-05-07T05:30:04;13.30;99.90
3996;DHT22;2012;49.794;9.722;2023-05-07T05:32:33;13.20;99.90
3996;DHT22;2012;49.794;9.722;2023-05-07T05:35:01;13.10;99.90
3996;DHT22;2012;49.794;9.722;2023-05-07T05:37:28;13.30;99.90
3996;DHT22;2012;49.794;9.722;2023-05-07T05:39:58;13.50;99.90
3996;DHT22;2012;49.794;9.722;2023-05-07T05:42:27;13.60;99.90
3996;DHT22;2012;49.794;9.722;2023-05-07T05:44:54;13.60;99.90
3996;DHT22;2012;49.794;9.722;2023-05-07T05:47:22;13.60;99.90
3996;DHT22;2012;49.794;9.722;2023-05-07T05:49:53;13.50;99.90
3996;DHT22;2012;49.794;9.722;2023-05-07T05:52:20;13.60;99.90
3996;DHT22;2012;49.794;9.722;2023-05-07T05:54:50;13.70;99.90
3996;DHT22;2012;49.794;9.722;2023-05-07T05:57:18;13.70;99.90
3996;DHT22;2012;49.794;9.722;2023-05-07T05:59:46;13.80;99.90
3996;DHT22;2012;49.794;9.722;2023-05-07T06:02:14;13.90;99.90
3996;DHT22;2012;49.794;9.722;2023-05-07T06:04:41;14.00;99.90
3996;DHT22;2012;49.794;9.722;2023-05-07T06:07:11;14.10;99.90
3996;DHT22;2012;49.794;9.722;2023-05-07T06:09:38;14.10;99.90
3996;DHT22;2012;49.794;9.722;2023-05-07T06:12:05;14.20;99.90
3996;DHT22;2012;49.794;9.722;2023-05-07T06:14:32;14.30;99.90
3996;DHT22;2012;49.794;9.722;2023-05-07T06:16:59;14.20;99.90
3996;DHT22;2012;49.794;9.722;2023-05-07T06:19:26;14.30;99.90
3996;DHT22;2012;49.794;9.722;2023-05-07T06:21:56;14.40;99.90
3996;DHT22;2012;49.794;9.722;2023-05-07T06:24:27;14.50;99.90
3996;DHT22;2012;49.794;9.722;2023-05-07T06:26:54;14.60;99.90
3996;DHT22;2012;49.794;9.722;2023-05-07T06:29:22;14.70;99.90
3996;DHT22;2012;49.794;9.722;2023-05-07T06:31:52;14.80;99.90
3996;DHT22;2012;49.794;9.722;2023-05-07T06:34:20;14.80;99.90
3996;DHT22;2012;49.794;9.722;2023-05-07T06:36:47;14.90;99.90
3996;DHT22;2012;49.794;9.722;2023-05-07T06:39:24;14.90;99.90
3996;DHT22;2012;49.794;9.722;2023-05-07T06:41:51;15.00;99.90
3996;DHT22;2012;49.794;9.722;2023-05-07T06:44:25;15.00;99.90
3996;DHT22;2012;49.794;9.722;2023-05-07T06:47:05;15.10;99.90
3996;DHT22;2012;49.794;9.722;2023-05-07T06:49:33;15.10;99.90
3996;DHT22;2012;49.794;9.722;2023-05-07T06:52:00;15.10;99.90
3996;DHT22;2012;49.794;9.722;2023-05-07T06:54:29;15.10;99.90
3996;DHT22;2012;49.794;9.722;2023-05-07T06:56:56;15.20;99.90
3996;DHT22;2012;49.794;9.722;2023-05-07T06:59:25;15.30;99.90
3996;DHT22;2012;49.794;9.722;2023-05-07T07:01:52;15.40;99.90
3996;DHT22;2012;49.794;9.722;2023-05-07T07:04:19;15.40;99.90
3996;DHT22;2012;49.794;9.722;2023-05-07T07:06:55;15.40;99.90
3996;DHT22;2012;49.794;9.722;2023-05-07T07:09:23;15.50;99.90
3996;DHT22;2012;49.794;9.722;2023-05-07T07:11:51;15.50;99.90
3996;DHT22;2012;49.794;9.722;2023-05-07T07:14:18;15.60;99.90
3996;DHT22;2012;49.794;9.722;2023-05-07T07:16:49;15.70;99.90
3996;DHT22;2012;49.794;9.722;2023-05-07T07:19:18;15.90;99.90
3996;DHT22;2012;49.794;9.722;2023-05-07T07:21:49;16.20;99.90
3996;DHT22;2012;49.794;9.722;2023-05-07T07:24:16;16.30;99.90
3996;DHT22;2012;49.794;9.722;2023-05-07T07:26:50;16.20;99.90
3996;DHT22;2012;49.794;9.722;2023-05-07T07:29:19;16.20;99.90
3996;DHT22;2012;49.794;9.722;2023-05-07T07:31:48;16.10;99.90
3996;DHT22;2012;49.794;9.722;2023-05-07T07:34:17;16.10;99.90
3996;DHT22;2012;49.794;9.722;2023-05-07T07:36:44;16.20;99.90
3996;DHT22;2012;49.794;9.722;2023-05-07T07:39:15;16.30;99.90
3996;DHT22;2012;49.794;9.722;2023-05-07T07:41:44;16.30;99.90
3996;DHT22;2012;49.794;9.722;2023-05-07T07:44:12;16.30;99.90
3996;DHT22;2012;49.794;9.722;2023-05-07T07:46:44;16.30;99.90
3996;DHT22;2012;49.794;9.722;2023-05-07T07:49:11;16.20;99.90
3996;DHT22;2012;49.794;9.722;2023-05-07T07:51:38;16.30;99.90
3996;DHT22;2012;49.794;9.722;2023-05-07T07:54:05;16.30;99.90
3996;DHT22;2012;49.794;9.722;2023-05-07T07:56:34;16.20;99.90
3996;DHT22;2012;49.794;9.722;2023-05-07T07:59:03;16.30;99.90
3996;DHT22;2012;49.794;9.722;2023-05-07T08:01:31;16.30;99.90
3996;DHT22;2012;49.794;9.722;2023-05-07T08:03:58;16.30;99.90
3996;DHT22;2012;49.794;9.722;2023-05-07T08:06:27;16.40;99.90
3996;DHT22;2012;49.794;9.722;2023-05-07T08:08:55;16.40;99.90
3996;DHT22;2012;49.794;9.722;2023-05-07T08:11:22;16.40;99.90
3996;DHT22;2012;49.794;9.722;2023-05-07T08:13:50;16.50;99.90
3996;DHT22;2012;49.794;9.722;2023-05-07T08:16:18;16.50;99.90
3996;DHT22;2012;49.794;9.722;2023-05-07T08:18:46;16.50;99.90
3996;DHT22;2012;49.794;9.722;2023-05-07T08:21:13;16.60;99.90
3996;DHT22;2012;49.794;9.722;2023-05-07T08:23:40;16.60;99.90
3996;DHT22;2012;49.794;9.722;2023-05-07T08:26:08;16.70;99.90
3996;DHT22;2012;49.794;9.722;2023-05-07T08:28:36;16.70;99.90
3996;DHT22;2012;49.794;9.722;2023-05-07T08:31:03;16.80;99.90
3996;DHT22;2012;49.794;9.722;2023-05-07T08:33:34;16.80;99.90
3996;DHT22;2012;49.794;9.722;2023-05-07T08:36:01;16.90;99.90
3996;DHT22;2012;49.794;9.722;2023-05-07T08:38:28;16.80;99.90
3996;DHT22;2012;49.794;9.722;2023-05-07T08:40:56;17.00;99.90
3996;DHT22;2012;49.794;9.722;2023-05-07T08:43:26;17.10;99.90
3996;DHT22;2012;49.794;9.722;2023-05-07T08:45:54;17.20;99.90
3996;DHT22;2012;49.794;9.722;2023-05-07T08:48:27;17.20;99.90
3996;DHT22;2012;49.794;9.722;2023-05-07T08:51:04;17.30;99.90
3996;DHT22;2012;49.794;9.722;2023-05-07T08:53:33;17.40;99.90
3996;DHT22;2012;49.794;9.722;2023-05-07T08:56:00;17.50;99.90
3996;DHT22;2012;49.794;9.722;2023-05-07T08:58:28;17.70;99.90
3996;DHT22;2012;49.794;9.722;2023-05-07T09:00:55;17.70;99.90
3996;DHT22;2012;49.794;9.722;2023-05-07T09:03:23;17.60;99.90
3996;DHT22;2012;49.794;9.722;2023-05-07T09:05:53;17.60;99.90
3996;DHT22;2012;49.794;9.722;2023-05-07T09:08:25;17.60;99.90
3996;DHT22;2012;49.794;9.722;2023-05-07T09:10:55;17.80;99.90
3996;DHT22;2012;49.794;9.722;2023-05-07T09:13:22;17.80;99.90
3996;DHT22;2012;49.794;9.722;2023-05-07T09:15:50;17.80;99.90
3996;DHT22;2012;49.794;9.722;2023-05-07T09:18:17;17.80;99.90
3996;DHT22;2012;49.794;9.722;2023-05-07T09:20:46;17.80;99.90
3996;DHT22;2012;49.794;9.722;2023-05-07T09:23:14;17.90;99.90
3996;DHT22;2012;49.794;9.722;2023-05-07T09:25:43;17.90;99.90
3996;DHT22;2012;49.794;9.722;2023-05-07T09:28:17;18.00;99.90
3996;DHT22;2012;49.794;9.722;2023-05-07T09:30:44;18.20;99.90
3996;DHT22;2012;49.794;9.722;2023-05-07T09:33:13;18.30;99.90
3996;DHT22;2012;49.794;9.722;2023-05-07T09:35:45;18.40;99.90
3996;DHT22;2012;49.794;9.722;2023-05-07T09:38:17;18.50;99.90
3996;DHT22;2012;49.794;9.722;2023-05-07T09:41:11;18.70;99.90
3996;DHT22;2012;49.794;9.722;2023-05-07T09:43:54;18.80;99.90
3996;DHT22;2012;49.794;9.722;2023-05-07T09:46:34;18.80;99.90
3996;DHT22;2012;49.794;9.722;2023-05-07T09:49:12;18.80;99.90
3996;DHT22;2012;49.794;9.722;2023-05-07T09:51:49;18.90;99.90
3996;DHT22;2012;49.794;9.722;2023-05-07T09:54:18;19.10;99.90
3996;DHT22;2012;49.794;9.722;2023-05-07T09:56:49;19.30;99.90
3996;DHT22;2012;49.794;9.722;2023-05-07T09:59:18;19.70;99.90
3996;DHT22;2012;49.794;9.722;2023-05-07T10:01:48;20.00;99.90
3996;DHT22;2012;49.794;9.722;2023-05-07T10:04:17;20.00;99.90
3996;DHT22;2012;49.794;9.722;2023-05-07T10:06:46;19.80;99.90
3996;DHT22;2012;49.794;9.722;2023-05-07T10:09:13;19.90;99.90
3996;DHT22;2012;49.794;9.722;2023-05-07T10:11:42;20.30;99.90
3996;DHT22;2012;49.794;9.722;2023-05-07T10:14:10;20.40;99.90
3996;DHT22;2012;49.794;9.722;2023-05-07T10:16:37;20.50;99.90
3996;DHT22;2012;49.794;9.722;2023-05-07T10:19:09;20.70;99.90
3996;DHT22;2012;49.794;9.722;2023-05-07T10:21:40;20.60;99.90
3996;DHT22;2012;49.794;9.722;2023-05-07T10:24:12;20.60;99.90
3996;DHT22;2012;49.794;9.722;2023-05-07T10:26:46;20.80;99.90
3996;DHT22;2012;49.794;9.722;2023-05-07T10:29:21;21.10;99.90
3996;DHT22;2012;49.794;9.722;2023-05-07T10:32:53;21.20;99.90
3996;DHT22;2012;49.794;9.722;2023-05-07T10:35:26;21.00;99.90
3996;DHT22;2012;49.794;9.722;2023-05-07T10:37:57;21.00;99.90
3996;DHT22;2012;49.794;9.722;2023-05-07T10:40:27;21.30;99.90
3996;DHT22;2012;49.794;9.722;2023-05-07T10:42:59;21.50;99.90
3996;DHT22;2012;49.794;9.722;2023-05-07T10:45:31;21.90;99.90
3996;DHT22;2012;49.794;9.722;2023-05-07T10:48:16;21.80;99.90
3996;DHT22;2012;49.794;9.722;2023-05-07T10:51:19;21.50;99.90
3996;DHT22;2012;49.794;9.722;2023-05-07T10:53:48;21.80;99.90
3996;DHT22;2012;49.794;9.722;2023-05-07T10:56:23;22.00;99.90
3996;DHT22;2012;49.794;9.722;2023-05-07T11:02:04;21.90;99.90
3996;DHT22;2012;49.794;9.722;2023-05-07T11:05:21;21.80;99.90
3996;DHT22;2012;49.794;9.722;2023-05-07T11:08:12;22.10;99.90
3996;DHT22;2012;49.794;9.722;2023-05-07T11:10:56;22.30;99.90
3996;DHT22;2012;49.794;9.722;2023-05-07T11:13:47;22.50;99.90
3996;DHT22;2012;49.794;9.722;2023-05-07T11:16:37;22.50;99.90
3996;DHT22;2012;49.794;9.722;2023-05-07T11:19:15;22.40;99.90
3996;DHT22;2012;49.794;9.722;2023-05-07T11:21:47;22.40;99.90
3996;DHT22;2012;49.794;9.722;2023-05-07T11:24:29;22.60;99.90
3996;DHT22;2012;49.794;9.722;2023-05-07T11:27:04;22.50;99.90
3996;DHT22;2012;49.794;9.722;2023-05-07T11:29:31;22.50;99.90
3996;DHT22;2012;49.794;9.722;2023-05-07T11:32:04;22.40;99.90
3996;DHT22;2012;49.794;9.722;2023-05-07T11:34:47;22.50;99.90
3996;DHT22;2012;49.794;9.722;2023-05-07T11:37:17;23.00;99.90
3996;DHT22;2012;49.794;9.722;2023-05-07T11:40:11;23.20;99.90
3996;DHT22;2012;49.794;9.722;2023-05-07T11:42:40;23.20;99.90
3996;DHT22;2012;49.794;9.722;2023-05-07T11:45:10;22.60;99.90
3996;DHT22;2012;49.794;9.722;2023-05-07T11:47:38;23.10;99.90
3996;DHT22;2012;49.794;9.722;2023-05-07T11:50:09;23.40;99.90
3996;DHT22;2012;49.794;9.722;2023-05-07T11:52:37;23.70;99.90
3996;DHT22;2012;49.794;9.722;2023-05-07T11:55:07;23.70;99.90
3996;DHT22;2012;49.794;9.722;2023-05-07T11:57:34;24.00;99.90
3996;DHT22;2012;49.794;9.722;2023-05-07T12:00:02;24.00;99.70
3996;DHT22;2012;49.794;9.722;2023-05-07T12:02:40;24.00;99.20
3996;DHT22;2012;49.794;9.722;2023-05-07T12:05:08;24.10;99.90
3996;DHT22;2012;49.794;9.722;2023-05-07T12:07:37;23.90;98.80
3996;DHT22;2012;49.794;9.722;2023-05-07T12:10:05;23.80;99.40
3996;DHT22;2012;49.794;9.722;2023-05-07T12:12:41;23.80;98.50
3996;DHT22;2012;49.794;9.722;2023-05-07T12:15:10;24.00;99.10
3996;DHT22;2012;49.794;9.722;2023-05-07T12:17:38;24.10;98.70
3996;DHT22;2012;49.794;9.722;2023-05-07T12:20:06;24.10;97.50
3996;DHT22;2012;49.794;9.722;2023-05-07T12:22:33;24.50;97.90
3996;DHT22;2012;49.794;9.722;2023-05-07T12:25:00;24.50;96.80
3996;DHT22;2012;49.794;9.722;2023-05-07T12:27:26;24.60;95.60
3996;DHT22;2012;49.794;9.722;2023-05-07T12:29:53;24.50;95.80
3996;DHT22;2012;49.794;9.722;2023-05-07T12:32:21;24.90;96.00
3996;DHT22;2012;49.794;9.722;2023-05-07T12:34:52;24.70;94.10
3996;DHT22;2012;49.794;9.722;2023-05-07T12:37:25;24.70;95.20
3996;DHT22;2012;49.794;9.722;2023-05-07T12:40:06;24.70;94.80
3996;DHT22;2012;49.794;9.722;2023-05-07T12:42:37;24.60;94.30
3996;DHT22;2012;49.794;9.722;2023-05-07T12:45:16;24.80;94.20
3996;DHT22;2012;49.794;9.722;2023-05-07T12:47:44;25.10;93.50
3996;DHT22;2012;49.794;9.722;2023-05-07T12:50:13;25.20;94.00
3996;DHT22;2012;49.794;9.722;2023-05-07T12:52:41;25.10;92.30
3996;DHT22;2012;49.794;9.722;2023-05-07T12:55:08;25.10;92.30
3996;DHT22;2012;49.794;9.722;2023-05-07T12:57:47;25.20;92.80
3996;DHT22;2012;49.794;9.722;2023-05-07T13:00:14;25.40;91.90
3996;DHT22;2012;49.794;9.722;2023-05-07T13:02:43;25.50;90.90
3996;DHT22;2012;49.794;9.722;2023-05-07T13:05:13;25.70;92.10
3996;DHT22;2012;49.794;9.722;2023-05-07T13:07:40;25.60;91.20
3996;DHT22;2012;49.794;9.722;2023-05-07T13:10:08;25.40;91.40
3996;DHT22;2012;49.794;9.722;2023-05-07T13:12:35;25.30;90.60
3996;DHT22;2012;49.794;9.722;2023-05-07T13:15:02;25.50;91.40
3996;DHT22;2012;49.794;9.722;2023-05-07T13:17:29;25.50;89.10
3996;DHT22;2012;49.794;9.722;2023-05-07T13:19:58;25.10;89.10
3996;DHT22;2012;49.794;9.722;2023-05-07T13:22:25;24.80;90.10
3996;DHT22;2012;49.794;9.722;2023-05-07T13:24:51;24.60;90.60
3996;DHT22;2012;49.794;9.722;2023-05-07T13:27:18;24.80;91.80
3996;DHT22;2012;49.794;9.722;2023-05-07T13:29:46;24.80;91.80
3996;DHT22;2012;49.794;9.722;2023-05-07T13:32:12;25.00;90.60
3996;DHT22;2012;49.794;9.722;2023-05-07T13:34:39;25.10;90.50
3996;DHT22;2012;49.794;9.722;2023-05-07T13:37:06;25.30;90.50
3996;DHT22;2012;49.794;9.722;2023-05-07T13:39:37;25.50;87.50
3996;DHT22;2012;49.794;9.722;2023-05-07T13:42:04;25.60;88.60
3996;DHT22;2012;49.794;9.722;2023-05-07T13:44:31;25.70;86.50
3996;DHT22;2012;49.794;9.722;2023-05-07T13:46:58;25.10;85.10
3996;DHT22;2012;49.794;9.722;2023-05-07T13:49:24;25.10;88.40
3996;DHT22;2012;49.794;9.722;2023-05-07T13:51:51;24.80;86.40
3996;DHT22;2012;49.794;9.722;2023-05-07T13:54:18;24.70;88.40
3996;DHT22;2012;49.794;9.722;2023-05-07T13:56:45;24.80;86.90
3996;DHT22;2012;49.794;9.722;2023-05-07T13:59:12;24.90;87.70
3996;DHT22;2012;49.794;9.722;2023-05-07T14:01:41;25.00;87.50
3996;DHT22;2012;49.794;9.722;2023-05-07T14:04:08;25.30;87.60
3996;DHT22;2012;49.794;9.722;2023-05-07T14:06:34;25.30;85.60
3996;DHT22;2012;49.794;9.722;2023-05-07T14:09:01;25.40;85.70
3996;DHT22;2012;49.794;9.722;2023-05-07T14:11:28;25.30;85.00
3996;DHT22;2012;49.794;9.722;2023-05-07T14:13:55;25.00;84.60
3996;DHT22;2012;49.794;9.722;2023-05-07T14:16:23;25.10;85.10
3996;DHT22;2012;49.794;9.722;2023-05-07T14:18:50;25.30;83.80
3996;DHT22;2012;49.794;9.722;2023-05-07T14:21:17;25.50;82.70
3996;DHT22;2012;49.794;9.722;2023-05-07T14:23:43;25.30;82.30
3996;DHT22;2012;49.794;9.722;2023-05-07T14:26:10;25.40;82.50
3996;DHT22;2012;49.794;9.722;2023-05-07T14:28:37;25.50;81.00
3996;DHT22;2012;49.794;9.722;2023-05-07T14:31:06;25.40;79.20
3996;DHT22;2012;49.794;9.722;2023-05-07T14:33:33;25.30;81.00
3996;DHT22;2012;49.794;9.722;2023-05-07T14:36:00;25.20;80.60
3996;DHT22;2012;49.794;9.722;2023-05-07T14:38:27;25.20;82.10
3996;DHT22;2012;49.794;9.722;2023-05-07T14:40:54;25.10;81.00
3996;DHT22;2012;49.794;9.722;2023-05-07T14:43:22;25.20;82.20
3996;DHT22;2012;49.794;9.722;2023-05-07T14:45:49;25.10;81.80
3996;DHT22;2012;49.794;9.722;2023-05-07T14:48:16;24.70;80.40
3996;DHT22;2012;49.794;9.722;2023-05-07T14:50:47;24.60;81.40
3996;DHT22;2012;49.794;9.722;2023-05-07T14:53:15;24.30;79.50
3996;DHT22;2012;49.794;9.722;2023-05-07T14:55:42;24.40;84.80
3996;DHT22;2012;49.794;9.722;2023-05-07T14:58:10;24.40;85.70
3996;DHT22;2012;49.794;9.722;2023-05-07T15:00:37;24.40;87.20
3996;DHT22;2012;49.794;9.722;2023-05-07T15:03:09;24.30;87.10
3996;DHT22;2012;49.794;9.722;2023-05-07T15:05:37;24.20;87.00
3996;DHT22;2012;49.794;9.722;2023-05-07T15:08:04;24.20;88.00
3996;DHT22;2012;49.794;9.722;2023-05-07T15:10:35;24.10;90.30
3996;DHT22;2012;49.794;9.722;2023-05-07T15:13:08;24.00;89.10
3996;DHT22;2012;49.794;9.722;2023-05-07T15:15:41;24.10;89.50
3996;DHT22;2012;49.794;9.722;2023-05-07T15:18:08;23.90;88.60
3996;DHT22;2012;49.794;9.722;2023-05-07T15:20:36;23.90;89.40
3996;DHT22;2012;49.794;9.722;2023-05-07T15:23:03;23.80;90.40
3996;DHT22;2012;49.794;9.722;2023-05-07T15:25:32;23.70;90.60
3996;DHT22;2012;49.794;9.722;2023-05-07T15:28:00;23.70;91.00
3996;DHT22;2012;49.794;9.722;2023-05-07T15:30:27;23.60;92.00
3996;DHT22;2012;49.794;9.722;2023-05-07T15:32:54;23.50;92.60
3996;DHT22;2012;49.794;9.722;2023-05-07T15:35:21;23.30;92.80
3996;DHT22;2012;49.794;9.722;2023-05-07T15:37:49;23.40;92.50
3996;DHT22;2012;49.794;9.722;2023-05-07T15:40:16;23.20;92.60
3996;DHT22;2012;49.794;9.722;2023-05-07T15:42:44;23.20;93.20
3996;DHT22;2012;49.794;9.722;2023-05-07T15:45:11;23.10;93.40
3996;DHT22;2012;49.794;9.722;2023-05-07T15:47:39;23.00;93.40
3996;DHT22;2012;49.794;9.722;2023-05-07T15:50:06;23.10;93.50
3996;DHT22;2012;49.794;9.722;2023-05-07T15:52:33;23.00;93.10
3996;DHT22;2012;49.794;9.722;2023-05-07T15:55:00;23.00;93.20
3996;DHT22;2012;49.794;9.722;2023-05-07T15:57:26;22.90;92.60
3996;DHT22;2012;49.794;9.722;2023-05-07T15:59:53;22.90;93.40
3996;DHT22;2012;49.794;9.722;2023-05-07T16:02:20;22.80;93.20
3996;DHT22;2012;49.794;9.722;2023-05-07T16:04:47;22.80;93.60
3996;DHT22;2012;49.794;9.722;2023-05-07T16:07:14;22.80;94.00
3996;DHT22;2012;49.794;9.722;2023-05-07T16:09:41;22.80;94.10
3996;DHT22;2012;49.794;9.722;2023-05-07T16:12:08;22.80;94.60
3996;DHT22;2012;49.794;9.722;2023-05-07T16:14:35;22.70;94.80
3996;DHT22;2012;49.794;9.722;2023-05-07T16:17:02;22.60;94.80
3996;DHT22;2012;49.794;9.722;2023-05-07T16:19:29;22.50;95.80
3996;DHT22;2012;49.794;9.722;2023-05-07T16:21:56;22.50;95.40